sensor_id;sensor_type;location;lat;lon;timestamp;P1;durP1;ratioP1;P2;durP2;ratioP2
35578;SDS011;21687;48.900;9.188;2023-05-07T00:01:19;4.30;;;3.90;;
35578;SDS011;21687;48.900;9.188;2023-05-07T00:03:45;4.50;;;3.90;;
35578;SDS011;21687;48.900;9.188;2023-05-07T00:06:11;4.73;;;3.83;;
35578;SDS011;21687;48.900;9.188;2023-05-07T00:08:38;4.23;;;3.60;;
35578;SDS011;21687;48.900;9.188;2023-05-07T00:11:04;3.90;;;3.60;;
35578;SDS011;21687;48.900;9.188;2023-05-07T00:13:30;6.87;;;4.40;;
35578;SDS011;21687;48.900;9.188;2023-05-07T00:16:01;5.53;;;4.57;;
35578;SDS011;21687;48.900;9.188;2023-05-07T00:18:27;4.30;;;3.90;;
35578;SDS011;21687;48.900;9.188;2023-05-07T00:20:54;5.33;;;4.27;;
35578;SDS011;21687;48.900;9.188;2023-05-07T00:23:21;7.43;;;5.60;;
35578;SDS011;21687;48.900;9.188;2023-05-07T00:25:47;6.77;;;3.93;;
35578;SDS011;21687;48.900;9.188;2023-05-07T00:28:13;4.50;;;4.10;;
35578;SDS011;21687;48.900;9.188;2023-05-07T00:30:40;6.53;;;4.67;;
35578;SDS011;21687;48.900;9.188;2023-05-07T00:33:06;4.37;;;3.97;;
35578;SDS011;21687;48.900;9.188;2023-05-07T00:35:32;5.90;;;4.00;;
35578;SDS011;21687;48.900;9.188;2023-05-07T00:37:58;4.70;;;4.00;;
35578;SDS011;21687;48.900;9.188;2023-05-07T00:40:25;4.53;;;3.80;;
35578;SDS011;21687;48.900;9.188;2023-05-07T00:42:51;6.20;;;4.53;;
35578;SDS011;21687;48.900;9.188;2023-05-07T00:45:23;5.17;;;4.13;;
35578;SDS011;21687;48.900;9.188;2023-05-07T00:47:53;7.97;;;4.37;;
35578;SDS011;21687;48.900;9.188;2023-05-07T00:50:24;4.63;;;4.00;;
35578;SDS011;21687;48.900;9.188;2023-05-07T00:52:51;4.37;;;3.97;;
35578;SDS011;21687;48.900;9.188;2023-05-07T00:55:18;8.10;;;4.60;;
35578;SDS011;21687;48.900;9.188;2023-05-07T00:57:45;6.33;;;4.87;;
35578;SDS011;21687;48.900;9.188;2023-05-07T01:00:12;6.43;;;4.50;;
35578;SDS011;21687;48.900;9.188;2023-05-07T01:02:39;4.70;;;4.30;;
35578;SDS011;21687;48.900;9.188;2023-05-07T01:05:16;5.57;;;4.37;;
35578;SDS011;21687;48.900;9.188;2023-05-07T01:07:44;6.43;;;5.30;;
35578;SDS011;21687;48.900;9.188;2023-05-07T01:10:11;4.90;;;4.10;;
35578;SDS011;21687;48.900;9.188;2023-05-07T01:12:38;4.97;;;4.20;;
35578;SDS011;21687;48.900;9.188;2023-05-07T01:15:06;6.07;;;5.30;;
35578;SDS011;21687;48.900;9.188;2023-05-07T01:17:34;7.30;;;4.83;;
35578;SDS011;21687;48.900;9.188;2023-05-07T01:20:02;6.90;;;5.33;;
35578;SDS011;21687;48.900;9.188;2023-05-07T01:22:32;6.80;;;4.63;;
35578;SDS011;21687;48.900;9.188;2023-05-07T01:25:00;8.37;;;4.77;;
35578;SDS011;21687;48.900;9.188;2023-05-07T01:27:27;6.43;;;4.10;;
35578;SDS011;21687;48.900;9.188;2023-05-07T01:29:53;6.27;;;4.80;;
35578;SDS011;21687;48.900;9.188;2023-05-07T01:32:27;6.73;;;5.00;;
35578;SDS011;21687;48.900;9.188;2023-05-07T01:35:07;5.60;;;4.63;;
35578;SDS011;21687;48.900;9.188;2023-05-07T01:37:36;6.47;;;4.50;;
35578;SDS011;21687;48.900;9.188;2023-05-07T01:40:04;5.03;;;4.30;;
35578;SDS011;21687;48.900;9.188;2023-05-07T01:42:32;7.93;;;4.40;;
35578;SDS011;21687;48.900;9.188;2023-05-07T01:44:58;4.77;;;4.20;;
35578;SDS011;21687;48.900;9.188;2023-05-07T01:47:24;6.30;;;4.27;;
35578;SDS011;21687;48.900;9.188;2023-05-07T01:49:51;5.50;;;4.67;;
35578;SDS011;21687;48.900;9.188;2023-05-07T01:52:18;5.00;;;3.93;;
35578;SDS011;21687;48.900;9.188;2023-05-07T01:54:44;4.10;;;3.70;;
35578;SDS011;21687;48.900;9.188;2023-05-07T01:57:10;6.40;;;4.73;;
35578;SDS011;21687;48.900;9.188;2023-05-07T01:59:37;7.10;;;4.50;;
35578;SDS011;21687;48.900;9.188;2023-05-07T02:02:03;5.77;;;4.33;;
35578;SDS011;21687;48.900;9.188;2023-05-07T02:04:29;5.57;;;3.90;;
35578;SDS011;21687;48.900;9.188;2023-05-07T02:06:56;4.60;;;4.10;;
35578;SDS011;21687;48.900;9.188;2023-05-07T02:09:22;4.40;;;4.00;;
35578;SDS011;21687;48.900;9.188;2023-05-07T02:11:49;4.10;;;3.70;;
35578;SDS011;21687;48.900;9.188;2023-05-07T02:14:15;5.87;;;3.77;;
35578;SDS011;21687;48.900;9.188;2023-05-07T02:16:41;4.97;;;4.00;;
35578;SDS011;21687;48.900;9.188;2023-05-07T02:19:08;7.43;;;3.80;;
35578;SDS011;21687;48.900;9.188;2023-05-07T02:21:34;4.27;;;3.80;;
35578;SDS011;21687;48.900;9.188;2023-05-07T02:24:00;4.43;;;3.93;;
35578;SDS011;21687;48.900;9.188;2023-05-07T02:26:26;7.43;;;3.80;;
35578;SDS011;21687;48.900;9.188;2023-05-07T02:28:53;4.10;;;3.70;;
35578;SDS011;21687;48.900;9.188;2023-05-07T02:31:19;4.67;;;4.00;;
35578;SDS011;21687;48.900;9.188;2023-05-07T02:33:46;4.13;;;3.73;;
35578;SDS011;21687;48.900;9.188;2023-05-07T02:36:12;6.47;;;3.73;;
35578;SDS011;21687;48.900;9.188;2023-05-07T02:38:38;3.77;;;3.47;;
35578;SDS011;21687;48.900;9.188;2023-05-07T02:41:05;6.57;;;3.30;;
35578;SDS011;21687;48.900;9.188;2023-05-07T02:43:31;3.70;;;3.30;;
35578;SDS011;21687;48.900;9.188;2023-05-07T02:46:07;4.93;;;3.30;;
35578;SDS011;21687;48.900;9.188;2023-05-07T02:48:34;4.63;;;3.33;;
35578;SDS011;21687;48.900;9.188;2023-05-07T02:51:00;4.80;;;3.67;;
35578;SDS011;21687;48.900;9.188;2023-05-07T02:53:27;3.73;;;3.30;;
35578;SDS011;21687;48.900;9.188;2023-05-07T02:55:57;4.23;;;3.40;;
35578;SDS011;21687;48.900;9.188;2023-05-07T02:58:25;3.63;;;3.30;;
35578;SDS011;21687;48.900;9.188;2023-05-07T03:00:51;5.20;;;3.57;;
35578;SDS011;21687;48.900;9.188;2023-05-07T03:03:19;3.90;;;3.60;;
35578;SDS011;21687;48.900;9.188;2023-05-07T03:05:46;3.83;;;3.50;;
35578;SDS011;21687;48.900;9.188;2023-05-07T03:08:12;4.23;;;3.80;;
35578;SDS011;21687;48.900;9.188;2023-05-07T03:10:39;5.00;;;3.57;;
35578;SDS011;21687;48.900;9.188;2023-05-07T03:13:05;4.17;;;3.77;;
35578;SDS011;21687;48.900;9.188;2023-05-07T03:15:31;4.30;;;3.90;;
35578;SDS011;21687;48.900;9.188;2023-05-07T03:17:57;4.10;;;3.70;;
35578;SDS011;21687;48.900;9.188;2023-05-07T03:20:24;5.53;;;3.50;;
35578;SDS011;21687;48.900;9.188;2023-05-07T03:22:50;4.03;;;3.63;;
35578;SDS011;21687;48.900;9.188;2023-05-07T03:25:16;4.43;;;3.40;;
35578;SDS011;21687;48.900;9.188;2023-05-07T03:27:43;3.97;;;3.50;;
35578;SDS011;21687;48.900;9.188;2023-05-07T03:30:09;4.20;;;3.80;;
35578;SDS011;21687;48.900;9.188;2023-05-07T03:32:36;4.67;;;3.60;;
35578;SDS011;21687;48.900;9.188;2023-05-07T03:35:02;4.40;;;3.40;;
35578;SDS011;21687;48.900;9.188;2023-05-07T03:37:29;4.93;;;3.73;;
35578;SDS011;21687;48.900;9.188;2023-05-07T03:39:55;5.27;;;3.77;;
35578;SDS011;21687;48.900;9.188;2023-05-07T03:42:21;4.30;;;3.83;;
35578;SDS011;21687;48.900;9.188;2023-05-07T03:44:48;4.43;;;4.03;;
35578;SDS011;21687;48.900;9.188;2023-05-07T03:47:14;4.50;;;4.10;;
35578;SDS011;21687;48.900;9.188;2023-05-07T03:49:40;6.93;;;4.40;;
35578;SDS011;21687;48.900;9.188;2023-05-07T03:52:07;4.37;;;3.97;;
35578;SDS011;21687;48.900;9.188;2023-05-07T03:54:33;6.50;;;4.00;;
35578;SDS011;21687;48.900;9.188;2023-05-07T03:56:59;6.07;;;4.90;;
35578;SDS011;21687;48.900;9.188;2023-05-07T03:59:26;4.83;;;4.33;;
35578;SDS011;21687;48.900;9.188;2023-05-07T04:01:53;4.97;;;4.47;;
35578;SDS011;21687;48.900;9.188;2023-05-07T04:04:19;5.27;;;4.73;;
35578;SDS011;21687;48.900;9.188;2023-05-07T04:06:46;4.97;;;4.47;;
35578;SDS011;21687;48.900;9.188;2023-05-07T04:09:12;4.77;;;4.37;;
35578;SDS011;21687;48.900;9.188;2023-05-07T04:11:39;5.27;;;4.40;;
35578;SDS011;21687;48.900;9.188;2023-05-07T04:14:05;5.37;;;4.50;;
35578;SDS011;21687;48.900;9.188;2023-05-07T04:16:31;4.80;;;4.10;;
35578;SDS011;21687;48.900;9.188;2023-05-07T04:18:59;5.27;;;4.27;;
35578;SDS011;21687;48.900;9.188;2023-05-07T04:21:25;4.60;;;4.20;;
35578;SDS011;21687;48.900;9.188;2023-05-07T04:23:52;5.23;;;4.17;;
35578;SDS011;21687;48.900;9.188;2023-05-07T04:26:18;5.67;;;4.47;;
35578;SDS011;21687;48.900;9.188;2023-05-07T04:28:46;5.57;;;4.73;;
35578;SDS011;21687;48.900;9.188;2023-05-07T04:31:12;7.90;;;4.80;;
35578;SDS011;21687;48.900;9.188;2023-05-07T04:33:38;4.63;;;4.23;;
35578;SDS011;21687;48.900;9.188;2023-05-07T04:36:05;4.70;;;4.27;;
35578;SDS011;21687;48.900;9.188;2023-05-07T04:38:31;6.13;;;4.40;;
35578;SDS011;21687;48.900;9.188;2023-05-07T04:41:02;5.10;;;4.60;;
35578;SDS011;21687;48.900;9.188;2023-05-07T04:43:30;7.37;;;5.13;;
35578;SDS011;21687;48.900;9.188;2023-05-07T04:45:56;5.43;;;4.47;;
35578;SDS011;21687;48.900;9.188;2023-05-07T04:48:22;5.33;;;4.40;;
35578;SDS011;21687;48.900;9.188;2023-05-07T04:50:49;4.53;;;4.13;;
35578;SDS011;21687;48.900;9.188;2023-05-07T04:53:16;6.20;;;5.60;;
35578;SDS011;21687;48.900;9.188;2023-05-07T04:55:43;4.70;;;4.23;;
35578;SDS011;21687;48.900;9.188;2023-05-07T04:58:10;5.50;;;4.40;;
35578;SDS011;21687;48.900;9.188;2023-05-07T05:00:37;7.13;;;5.23;;
35578;SDS011;21687;48.900;9.188;2023-05-07T05:03:07;4.20;;;3.80;;
35578;SDS011;21687;48.900;9.188;2023-05-07T05:05:33;4.13;;;3.33;;
35578;SDS011;21687;48.900;9.188;2023-05-07T05:08:00;5.70;;;3.53;;
35578;SDS011;21687;48.900;9.188;2023-05-07T05:10:28;3.53;;;3.23;;
35578;SDS011;21687;48.900;9.188;2023-05-07T05:12:59;4.07;;;3.20;;
35578;SDS011;21687;48.900;9.188;2023-05-07T05:15:25;3.50;;;3.20;;
35578;SDS011;21687;48.900;9.188;2023-05-07T05:17:51;6.57;;;3.57;;
35578;SDS011;21687;48.900;9.188;2023-05-07T05:20:17;5.87;;;3.37;;
35578;SDS011;21687;48.900;9.188;2023-05-07T05:22:44;5.20;;;3.17;;
35578;SDS011;21687;48.900;9.188;2023-05-07T05:25:10;4.47;;;3.50;;
35578;SDS011;21687;48.900;9.188;2023-05-07T05:27:36;5.93;;;3.27;;
35578;SDS011;21687;48.900;9.188;2023-05-07T05:30:03;3.80;;;3.50;;
35578;SDS011;21687;48.900;9.188;2023-05-07T05:32:30;4.60;;;3.50;;
35578;SDS011;21687;48.900;9.188;2023-05-07T05:34:56;3.67;;;3.30;;
35578;SDS011;21687;48.900;9.188;2023-05-07T05:37:23;3.63;;;3.07;;
35578;SDS011;21687;48.900;9.188;2023-05-07T05:39:50;5.03;;;3.40;;
35578;SDS011;21687;48.900;9.188;2023-05-07T05:42:16;4.20;;;3.40;;
35578;SDS011;21687;48.900;9.188;2023-05-07T05:44:42;5.43;;;3.23;;
35578;SDS011;21687;48.900;9.188;2023-05-07T05:47:08;3.50;;;3.20;;
35578;SDS011;21687;48.900;9.188;2023-05-07T05:49:35;3.33;;;2.90;;
35578;SDS011;21687;48.900;9.188;2023-05-07T05:52:01;4.40;;;3.13;;
35578;SDS011;21687;48.900;9.188;2023-05-07T05:54:28;3.63;;;2.83;;
35578;SDS011;21687;48.900;9.188;2023-05-07T05:56:54;3.40;;;2.63;;
35578;SDS011;21687;48.900;9.188;2023-05-07T05:59:20;3.53;;;2.60;;
35578;SDS011;21687;48.900;9.188;2023-05-07T06:01:47;3.00;;;2.70;;
35578;SDS011;21687;48.900;9.188;2023-05-07T06:04:13;5.37;;;2.50;;
35578;SDS011;21687;48.900;9.188;2023-05-07T06:06:39;2.93;;;2.40;;
35578;SDS011;21687;48.900;9.188;2023-05-07T06:09:06;3.17;;;2.53;;
35578;SDS011;21687;48.900;9.188;2023-05-07T06:11:32;3.97;;;2.47;;
35578;SDS011;21687;48.900;9.188;2023-05-07T06:13:58;2.60;;;2.40;;
35578;SDS011;21687;48.900;9.188;2023-05-07T06:16:24;3.00;;;2.80;;
35578;SDS011;21687;48.900;9.188;2023-05-07T06:18:51;2.70;;;2.50;;
35578;SDS011;21687;48.900;9.188;2023-05-07T06:21:17;3.43;;;2.40;;
35578;SDS011;21687;48.900;9.188;2023-05-07T06:23:43;3.17;;;2.20;;
35578;SDS011;21687;48.900;9.188;2023-05-07T06:26:10;2.33;;;2.13;;
35578;SDS011;21687;48.900;9.188;2023-05-07T06:28:36;2.77;;;2.27;;
35578;SDS011;21687;48.900;9.188;2023-05-07T06:31:15;2.93;;;2.33;;
35578;SDS011;21687;48.900;9.188;2023-05-07T06:33:44;5.30;;;2.60;;
35578;SDS011;21687;48.900;9.188;2023-05-07T06:36:10;2.60;;;2.20;;
35578;SDS011;21687;48.900;9.188;2023-05-07T06:38:37;5.93;;;2.47;;
35578;SDS011;21687;48.900;9.188;2023-05-07T06:41:03;2.60;;;2.20;;
35578;SDS011;21687;48.900;9.188;2023-05-07T06:43:31;2.13;;;2.03;;
35578;SDS011;21687;48.900;9.188;2023-05-07T06:45:57;2.20;;;2.10;;
35578;SDS011;21687;48.900;9.188;2023-05-07T06:48:24;4.10;;;2.23;;
35578;SDS011;21687;48.900;9.188;2023-05-07T06:50:50;1.80;;;1.70;;
35578;SDS011;21687;48.900;9.188;2023-05-07T06:53:16;2.07;;;1.90;;
35578;SDS011;21687;48.900;9.188;2023-05-07T06:55:42;2.30;;;2.10;;
35578;SDS011;21687;48.900;9.188;2023-05-07T06:58:09;2.73;;;1.90;;
35578;SDS011;21687;48.900;9.188;2023-05-07T07:00:35;1.93;;;1.70;;
35578;SDS011;21687;48.900;9.188;2023-05-07T07:03:04;2.80;;;2.20;;
35578;SDS011;21687;48.900;9.188;2023-05-07T07:05:30;3.13;;;1.90;;
35578;SDS011;21687;48.900;9.188;2023-05-07T07:07:56;2.20;;;2.00;;
35578;SDS011;21687;48.900;9.188;2023-05-07T07:10:22;2.20;;;1.70;;
35578;SDS011;21687;48.900;9.188;2023-05-07T07:12:49;2.33;;;1.90;;
35578;SDS011;21687;48.900;9.188;2023-05-07T07:15:17;2.17;;;1.80;;
35578;SDS011;21687;48.900;9.188;2023-05-07T07:17:45;1.90;;;1.70;;
35578;SDS011;21687;48.900;9.188;2023-05-07T07:20:13;3.47;;;2.13;;
35578;SDS011;21687;48.900;9.188;2023-05-07T07:22:39;2.20;;;2.00;;
35578;SDS011;21687;48.900;9.188;2023-05-07T07:25:05;2.63;;;2.03;;
35578;SDS011;21687;48.900;9.188;2023-05-07T07:27:32;2.13;;;2.00;;
35578;SDS011;21687;48.900;9.188;2023-05-07T07:29:58;4.03;;;1.90;;
35578;SDS011;21687;48.900;9.188;2023-05-07T07:32:24;2.23;;;1.73;;
35578;SDS011;21687;48.900;9.188;2023-05-07T07:34:51;2.20;;;2.00;;
35578;SDS011;21687;48.900;9.188;2023-05-07T07:37:17;2.20;;;2.00;;
35578;SDS011;21687;48.900;9.188;2023-05-07T07:39:43;3.60;;;2.03;;
35578;SDS011;21687;48.900;9.188;2023-05-07T07:42:10;5.53;;;2.50;;
35578;SDS011;21687;48.900;9.188;2023-05-07T07:44:36;3.07;;;2.10;;
35578;SDS011;21687;48.900;9.188;2023-05-07T07:47:04;2.80;;;2.60;;
35578;SDS011;21687;48.900;9.188;2023-05-07T07:49:30;3.93;;;2.40;;
35578;SDS011;21687;48.900;9.188;2023-05-07T07:51:57;2.67;;;2.30;;
35578;SDS011;21687;48.900;9.188;2023-05-07T07:54:24;3.33;;;2.33;;
35578;SDS011;21687;48.900;9.188;2023-05-07T07:56:50;3.20;;;2.27;;
35578;SDS011;21687;48.900;9.188;2023-05-07T07:59:17;2.43;;;2.23;;
35578;SDS011;21687;48.900;9.188;2023-05-07T08:01:44;2.60;;;2.40;;
35578;SDS011;21687;48.900;9.188;2023-05-07T08:04:10;2.23;;;2.03;;
35578;SDS011;21687;48.900;9.188;2023-05-07T08:06:40;3.00;;;2.20;;
35578;SDS011;21687;48.900;9.188;2023-05-07T08:09:07;2.40;;;2.20;;
35578;SDS011;21687;48.900;9.188;2023-05-07T08:11:33;3.90;;;2.10;;
35578;SDS011;21687;48.900;9.188;2023-05-07T08:14:00;3.97;;;2.30;;
35578;SDS011;21687;48.900;9.188;2023-05-07T08:16:26;3.20;;;2.40;;
35578;SDS011;21687;48.900;9.188;2023-05-07T08:18:53;3.17;;;2.50;;
35578;SDS011;21687;48.900;9.188;2023-05-07T08:21:19;2.43;;;2.23;;
35578;SDS011;21687;48.900;9.188;2023-05-07T08:23:46;2.87;;;2.57;;
35578;SDS011;21687;48.900;9.188;2023-05-07T08:26:12;3.30;;;2.13;;
35578;SDS011;21687;48.900;9.188;2023-05-07T08:28:38;2.97;;;2.30;;
35578;SDS011;21687;48.900;9.188;2023-05-07T08:31:05;2.57;;;2.37;;
35578;SDS011;21687;48.900;9.188;2023-05-07T08:33:31;2.60;;;2.30;;
35578;SDS011;21687;48.900;9.188;2023-05-07T08:35:57;2.80;;;2.00;;
35578;SDS011;21687;48.900;9.188;2023-05-07T08:38:23;2.60;;;2.30;;
35578;SDS011;21687;48.900;9.188;2023-05-07T08:40:50;2.80;;;2.60;;
35578;SDS011;21687;48.900;9.188;2023-05-07T08:43:17;2.53;;;2.30;;
35578;SDS011;21687;48.900;9.188;2023-05-07T08:45:45;2.10;;;2.00;;
35578;SDS011;21687;48.900;9.188;2023-05-07T08:48:14;2.77;;;2.40;;
35578;SDS011;21687;48.900;9.188;2023-05-07T08:50:41;3.23;;;2.17;;
35578;SDS011;21687;48.900;9.188;2023-05-07T08:53:08;2.30;;;2.10;;
35578;SDS011;21687;48.900;9.188;2023-05-07T08:55:34;2.27;;;2.07;;
35578;SDS011;21687;48.900;9.188;2023-05-07T08:58:01;2.30;;;2.10;;
35578;SDS011;21687;48.900;9.188;2023-05-07T09:00:27;3.37;;;2.20;;
35578;SDS011;21687;48.900;9.188;2023-05-07T09:02:53;3.53;;;2.47;;
35578;SDS011;21687;48.900;9.188;2023-05-07T09:05:20;2.90;;;2.47;;
35578;SDS011;21687;48.900;9.188;2023-05-07T09:07:46;2.50;;;2.30;;
35578;SDS011;21687;48.900;9.188;2023-05-07T09:10:13;4.67;;;2.30;;
35578;SDS011;21687;48.900;9.188;2023-05-07T09:12:39;2.20;;;2.10;;
35578;SDS011;21687;48.900;9.188;2023-05-07T09:15:06;3.73;;;2.30;;
35578;SDS011;21687;48.900;9.188;2023-05-07T09:17:33;3.10;;;2.60;;
35578;SDS011;21687;48.900;9.188;2023-05-07T09:20:03;2.57;;;2.10;;
35578;SDS011;21687;48.900;9.188;2023-05-07T09:22:33;2.47;;;2.27;;
35578;SDS011;21687;48.900;9.188;2023-05-07T09:25:03;2.50;;;2.20;;
35578;SDS011;21687;48.900;9.188;2023-05-07T09:27:31;2.67;;;2.20;;
35578;SDS011;21687;48.900;9.188;2023-05-07T09:29:57;2.30;;;2.10;;
35578;SDS011;21687;48.900;9.188;2023-05-07T09:32:24;3.37;;;2.10;;
35578;SDS011;21687;48.900;9.188;2023-05-07T09:34:52;2.30;;;2.03;;
35578;SDS011;21687;48.900;9.188;2023-05-07T09:37:19;2.97;;;2.20;;
35578;SDS011;21687;48.900;9.188;2023-05-07T09:39:46;2.97;;;2.20;;
35578;SDS011;21687;48.900;9.188;2023-05-07T09:42:14;3.60;;;2.30;;
35578;SDS011;21687;48.900;9.188;2023-05-07T09:44:40;2.47;;;2.23;;
35578;SDS011;21687;48.900;9.188;2023-05-07T09:47:08;8.70;;;2.40;;
35578;SDS011;21687;48.900;9.188;2023-05-07T09:49:35;3.70;;;2.20;;
35578;SDS011;21687;48.900;9.188;2023-05-07T09:52:05;2.50;;;2.30;;
35578;SDS011;21687;48.900;9.188;2023-05-07T09:54:34;5.33;;;2.87;;
35578;SDS011;21687;48.900;9.188;2023-05-07T09:57:03;3.63;;;2.60;;
35578;SDS011;21687;48.900;9.188;2023-05-07T09:59:31;2.07;;;1.90;;
35578;SDS011;21687;48.900;9.188;2023-05-07T10:02:00;2.47;;;2.27;;
35578;SDS011;21687;48.900;9.188;2023-05-07T10:04:28;2.20;;;2.10;;
35578;SDS011;21687;48.900;9.188;2023-05-07T10:06:55;4.20;;;2.80;;
35578;SDS011;21687;48.900;9.188;2023-05-07T10:09:23;3.13;;;2.47;;
35578;SDS011;21687;48.900;9.188;2023-05-07T10:11:50;2.63;;;2.20;;
35578;SDS011;21687;48.900;9.188;2023-05-07T10:14:19;2.37;;;2.17;;
35578;SDS011;21687;48.900;9.188;2023-05-07T10:16:46;2.23;;;1.83;;
35578;SDS011;21687;48.900;9.188;2023-05-07T10:19:13;2.80;;;2.23;;
35578;SDS011;21687;48.900;9.188;2023-05-07T10:21:44;2.70;;;2.50;;
35578;SDS011;21687;48.900;9.188;2023-05-07T10:24:31;2.50;;;2.17;;
35578;SDS011;21687;48.900;9.188;2023-05-07T10:27:09;2.20;;;2.10;;
35578;SDS011;21687;48.900;9.188;2023-05-07T10:29:47;2.40;;;2.20;;
35578;SDS011;21687;48.900;9.188;2023-05-07T10:35:04;2.57;;;2.37;;
35578;SDS011;21687;48.900;9.188;2023-05-07T10:37:36;3.97;;;2.60;;
35578;SDS011;21687;48.900;9.188;2023-05-07T10:40:03;3.40;;;1.90;;
35578;SDS011;21687;48.900;9.188;2023-05-07T10:42:32;4.47;;;2.23;;
35578;SDS011;21687;48.900;9.188;2023-05-07T10:45:11;3.90;;;2.43;;
35578;SDS011;21687;48.900;9.188;2023-05-07T10:50:29;2.47;;;2.27;;
35578;SDS011;21687;48.900;9.188;2023-05-07T10:55:45;2.20;;;2.03;;
35578;SDS011;21687;48.900;9.188;2023-05-07T10:58:23;3.33;;;2.43;;
35578;SDS011;21687;48.900;9.188;2023-05-07T11:00:55;2.53;;;2.30;;
35578;SDS011;21687;48.900;9.188;2023-05-07T11:03:22;2.77;;;2.10;;
35578;SDS011;21687;48.900;9.188;2023-05-07T11:06:08;3.87;;;2.57;;
35578;SDS011;21687;48.900;9.188;2023-05-07T11:08:54;2.00;;;1.90;;
35578;SDS011;21687;48.900;9.188;2023-05-07T11:14:10;3.37;;;2.10;;
35578;SDS011;21687;48.900;9.188;2023-05-07T11:16:39;2.67;;;2.07;;
35578;SDS011;21687;48.900;9.188;2023-05-07T11:19:06;5.10;;;2.10;;
35578;SDS011;21687;48.900;9.188;2023-05-07T11:21:40;3.60;;;2.47;;
35578;SDS011;21687;48.900;9.188;2023-05-07T11:24:10;1.93;;;1.80;;
35578;SDS011;21687;48.900;9.188;2023-05-07T11:26:44;4.63;;;2.47;;
35578;SDS011;21687;48.900;9.188;2023-05-07T11:29:15;2.10;;;2.00;;
35578;SDS011;21687;48.900;9.188;2023-05-07T11:31:43;2.03;;;1.90;;
35578;SDS011;21687;48.900;9.188;2023-05-07T11:34:14;2.37;;;2.17;;
35578;SDS011;21687;48.900;9.188;2023-05-07T11:36:46;2.00;;;1.90;;
35578;SDS011;21687;48.900;9.188;2023-05-07T11:39:23;2.30;;;2.20;;
35578;SDS011;21687;48.900;9.188;2023-05-07T11:41:52;2.40;;;2.20;;
35578;SDS011;21687;48.900;9.188;2023-05-07T11:44:18;3.77;;;2.27;;
35578;SDS011;21687;48.900;9.188;2023-05-07T11:46:45;3.20;;;1.90;;
35578;SDS011;21687;48.900;9.188;2023-05-07T11:49:11;2.70;;;1.83;;
35578;SDS011;21687;48.900;9.188;2023-05-07T11:51:38;3.40;;;2.13;;
35578;SDS011;21687;48.900;9.188;2023-05-07T11:54:05;2.67;;;1.90;;
35578;SDS011;21687;48.900;9.188;2023-05-07T11:56:34;4.57;;;1.90;;
35578;SDS011;21687;48.900;9.188;2023-05-07T11:59:00;3.20;;;1.60;;
35578;SDS011;21687;48.900;9.188;2023-05-07T12:01:27;2.23;;;1.90;;
35578;SDS011;21687;48.900;9.188;2023-05-07T12:03:54;5.97;;;2.10;;
35578;SDS011;21687;48.900;9.188;2023-05-07T12:06:20;2.93;;;1.67;;
35578;SDS011;21687;48.900;9.188;2023-05-07T12:08:46;2.33;;;2.07;;
35578;SDS011;21687;48.900;9.188;2023-05-07T12:11:22;2.23;;;1.80;;
35578;SDS011;21687;48.900;9.188;2023-05-07T12:13:50;2.00;;;1.60;;
35578;SDS011;21687;48.900;9.188;2023-05-07T12:16:17;3.30;;;1.83;;
35578;SDS011;21687;48.900;9.188;2023-05-07T12:18:44;2.33;;;1.90;;
35578;SDS011;21687;48.900;9.188;2023-05-07T12:21:11;4.00;;;1.70;;
35578;SDS011;21687;48.900;9.188;2023-05-07T12:23:37;2.10;;;1.77;;
35578;SDS011;21687;48.900;9.188;2023-05-07T12:26:05;2.27;;;1.77;;
35578;SDS011;21687;48.900;9.188;2023-05-07T12:28:31;1.93;;;1.63;;
35578;SDS011;21687;48.900;9.188;2023-05-07T12:31:06;1.83;;;1.67;;
35578;SDS011;21687;48.900;9.188;2023-05-07T12:33:33;3.00;;;1.60;;
35578;SDS011;21687;48.900;9.188;2023-05-07T12:36:02;1.77;;;1.67;;
35578;SDS011;21687;48.900;9.188;2023-05-07T12:38:34;1.97;;;1.77;;
35578;SDS011;21687;48.900;9.188;2023-05-07T12:41:05;1.70;;;1.60;;
35578;SDS011;21687;48.900;9.188;2023-05-07T12:43:32;1.70;;;1.60;;
35578;SDS011;21687;48.900;9.188;2023-05-07T12:46:00;2.43;;;1.50;;
35578;SDS011;21687;48.900;9.188;2023-05-07T12:48:31;3.80;;;2.10;;
35578;SDS011;21687;48.900;9.188;2023-05-07T12:50:59;3.37;;;1.77;;
35578;SDS011;21687;48.900;9.188;2023-05-07T12:53:27;3.50;;;1.90;;
35578;SDS011;21687;48.900;9.188;2023-05-07T12:55:55;2.13;;;1.80;;
35578;SDS011;21687;48.900;9.188;2023-05-07T12:58:25;1.67;;;1.40;;
35578;SDS011;21687;48.900;9.188;2023-05-07T13:00:56;2.10;;;1.90;;
35578;SDS011;21687;48.900;9.188;2023-05-07T13:03:29;5.10;;;1.80;;
35578;SDS011;21687;48.900;9.188;2023-05-07T13:05:58;5.20;;;2.07;;
35578;SDS011;21687;48.900;9.188;2023-05-07T13:08:26;3.27;;;2.30;;
35578;SDS011;21687;48.900;9.188;2023-05-07T13:10:53;3.57;;;2.47;;
35578;SDS011;21687;48.900;9.188;2023-05-07T13:13:20;2.90;;;2.10;;
35578;SDS011;21687;48.900;9.188;2023-05-07T13:15:46;3.27;;;2.17;;
35578;SDS011;21687;48.900;9.188;2023-05-07T13:18:13;2.47;;;2.27;;
35578;SDS011;21687;48.900;9.188;2023-05-07T13:20:39;3.87;;;2.67;;
35578;SDS011;21687;48.900;9.188;2023-05-07T13:23:05;3.00;;;2.30;;
35578;SDS011;21687;48.900;9.188;2023-05-07T13:25:32;2.20;;;2.00;;
35578;SDS011;21687;48.900;9.188;2023-05-07T13:27:58;4.37;;;2.30;;
35578;SDS011;21687;48.900;9.188;2023-05-07T13:30:25;2.47;;;2.27;;
35578;SDS011;21687;48.900;9.188;2023-05-07T13:32:52;2.60;;;2.20;;
35578;SDS011;21687;48.900;9.188;2023-05-07T13:35:20;3.13;;;2.07;;
35578;SDS011;21687;48.900;9.188;2023-05-07T13:37:46;3.27;;;2.00;;
35578;SDS011;21687;48.900;9.188;2023-05-07T13:40:17;3.23;;;1.80;;
35578;SDS011;21687;48.900;9.188;2023-05-07T13:42:44;1.57;;;1.47;;
35578;SDS011;21687;48.900;9.188;2023-05-07T13:45:10;2.60;;;1.50;;
35578;SDS011;21687;48.900;9.188;2023-05-07T13:47:39;2.20;;;1.60;;
35578;SDS011;21687;48.900;9.188;2023-05-07T13:50:07;1.70;;;1.60;;
35578;SDS011;21687;48.900;9.188;2023-05-07T13:52:34;3.97;;;1.70;;
35578;SDS011;21687;48.900;9.188;2023-05-07T13:55:00;2.00;;;1.80;;
35578;SDS011;21687;48.900;9.188;2023-05-07T13:57:26;2.00;;;1.73;;
35578;SDS011;21687;48.900;9.188;2023-05-07T13:59:53;3.80;;;1.83;;
35578;SDS011;21687;48.900;9.188;2023-05-07T14:02:19;2.10;;;1.27;;
35578;SDS011;21687;48.900;9.188;2023-05-07T14:04:45;1.27;;;1.17;;
35578;SDS011;21687;48.900;9.188;2023-05-07T14:07:12;3.50;;;1.40;;
35578;SDS011;21687;48.900;9.188;2023-05-07T14:09:38;1.60;;;1.50;;
35578;SDS011;21687;48.900;9.188;2023-05-07T14:12:04;2.23;;;1.50;;
35578;SDS011;21687;48.900;9.188;2023-05-07T14:14:31;1.07;;;1.07;;
35578;SDS011;21687;48.900;9.188;2023-05-07T14:16:57;1.20;;;1.10;;
35578;SDS011;21687;48.900;9.188;2023-05-07T14:19:23;1.47;;;1.33;;
35578;SDS011;21687;48.900;9.188;2023-05-07T14:21:50;1.90;;;1.80;;
35578;SDS011;21687;48.900;9.188;2023-05-07T14:24:16;5.37;;;4.47;;
35578;SDS011;21687;48.900;9.188;2023-05-07T14:26:42;4.97;;;2.97;;
35578;SDS011;21687;48.900;9.188;2023-05-07T14:29:10;3.17;;;2.13;;
35578;SDS011;21687;48.900;9.188;2023-05-07T14:31:36;4.57;;;1.73;;
35578;SDS011;21687;48.900;9.188;2023-05-07T14:34:02;3.37;;;2.30;;
35578;SDS011;21687;48.900;9.188;2023-05-07T14:36:29;1.70;;;1.60;;
35578;SDS011;21687;48.900;9.188;2023-05-07T14:38:56;2.67;;;1.73;;
35578;SDS011;21687;48.900;9.188;2023-05-07T14:41:24;2.37;;;1.57;;
35578;SDS011;21687;48.900;9.188;2023-05-07T14:43:50;3.40;;;2.90;;
35578;SDS011;21687;48.900;9.188;2023-05-07T14:46:17;4.93;;;3.10;;
35578;SDS011;21687;48.900;9.188;2023-05-07T14:48:44;4.97;;;3.30;;
35578;SDS011;21687;48.900;9.188;2023-05-07T14:51:11;3.20;;;2.40;;
35578;SDS011;21687;48.900;9.188;2023-05-07T14:53:38;3.10;;;2.70;;
35578;SDS011;21687;48.900;9.188;2023-05-07T14:56:08;2.47;;;2.30;;
35578;SDS011;21687;48.900;9.188;2023-05-07T14:58:34;4.20;;;2.27;;
35578;SDS011;21687;48.900;9.188;2023-05-07T15:01:01;2.00;;;1.90;;